Time;durP1;ratioP1;P1;durP2;ratioP2;P2;SDS_P1;SDS_P2;PMS_P1;PMS_P2;Temp;Humidity;BMP_temperature;BMP_pressure;BME280_temperature;BME280_humidity;BME280_pressure;Samples;Min_cycle;Max_cycle;Signal;HPM_P1;HPM_P2
2021/01/12 00:01:10;;;;;;;;;;;;;;;;;;4999188;28;19930;-60
2021/01/12 00:03:37;;;;;;;;;;;;;;;;;;5012521;28;19929;-60
2021/01/12 00:06:04;;;;;;;;;;;;;;;;;;5014110;28;20028;-60
2021/01/12 00:08:31;;;;;;;;;;;;;;;;;;5004259;28;19992;-60
2021/01/12 00:10:58;;;;;;;;;;;;;;;;;;5012812;28;20059;-61
2021/01/12 00:13:26;;;;;;;;;;;;;;;;;;5025819;28;20381;-60
2021/01/12 00:15:53;;;;;;;;;;;;;;;;;;5022983;28;20377;-60
2021/01/12 00:18:20;;;;;;;;;;;;;;;;;;5012133;28;19983;-60
2021/01/12 00:20:47;;;;;;;;;;;;;;;;;;5010245;28;19931;-60
2021/01/12 00:23:14;;;;;;;;;;;;;;;;;;5012620;28;19929;-60
2021/01/12 00:25:41;;;;;;;;;;;;;;;;;;5012292;28;19929;-60
2021/01/12 00:28:08;;;;;;;;;;;;;;;;;;5011139;28;19929;-60
2021/01/12 00:30:35;;;;;;;;;;;;;;;;;;5005826;28;19935;-59
2021/01/12 00:33:02;;;;;;;;;;;;;;;;;;5003653;28;19929;-59
2021/01/12 00:35:29;;;;;;;;;;;;;;;;;;5013416;28;19929;-59
2021/01/12 00:37:56;;;;;;;;;;;;;;;;;;5011949;28;19926;-60
2021/01/12 00:40:23;;;;;;;;;;;;;;;;;;5015678;28;19932;-60
2021/01/12 00:42:50;;;;;;;;;;;;;;;;;;5011534;28;20268;-60
2021/01/12 00:45:17;;;;;;;;;;;;;;;;;;5012972;28;19925;-61
2021/01/12 00:47:44;;;;;;;;;;;;;;;;;;5011416;28;20008;-61
2021/01/12 00:50:12;;;;;;;;;;;;;;;;;;4994401;28;20032;-60
2021/01/12 00:52:39;;;;;;;;;;;;;;;;;;5009053;28;19929;-60
2021/01/12 00:55:06;;;;;;;;;;;;;;;;;;5011355;28;20025;-60
2021/01/12 00:57:33;;;;;;;;;;;;;;;;;;5012740;28;19925;-61
2021/01/12 01:00:00;;;;;;;;;;;;;;;;;;5011510;28;19972;-60
2021/01/12 01:02:27;;;;;;;;;;;;;;;;;;5011803;28;19931;-60
2021/01/12 01:04:55;;;;;;;;;;;;;;;;;;5009307;28;19933;-61
2021/01/12 01:07:22;;;;;;;;;;;;;;;;;;5000112;28;19935;-59
2021/01/12 01:09:49;;;;;;;;;;;;;;;;;;5009013;28;19930;-59
2021/01/12 01:12:16;;;;;;;;;;;;;;;;;;5011963;28;20385;-60
2021/01/12 01:14:43;;;;;;;;;;;;;;;;;;5012814;28;19925;-60
2021/01/12 01:17:11;;;;;;;;;;;;;;;;;;5007411;28;19932;-60
2021/01/12 01:19:38;;;;;;;;;;;;;;;;;;4994226;28;20296;-61
2021/01/12 01:22:05;;;;;;;;;;;;;;;;;;5004981;28;19932;-60
2021/01/12 01:24:32;;;;;;;;;;;;;;;;;;5012051;28;19929;-60
2021/01/12 01:26:59;;;;;;;;;;;;;;;;;;5011389;28;19934;-60
2021/01/12 01:29:26;;;;;;;;;;;;;;;;;;5011765;28;19931;-60
2021/01/12 01:31:53;;;;;;;;;;;;;;;;;;5010661;28;20012;-60
2021/01/12 01:34:20;;;;;;;;;;;;;;;;;;5028044;28;19925;-61
2021/01/12 01:36:47;;;;;;;;;;;;;;;;;;5019314;28;19931;-60
2021/01/12 01:39:15;;;;;;;;;;;;;;;;;;5013733;28;20322;-61
2021/01/12 01:41:42;;;;;;;;;;;;;;;;;;5008352;28;19930;-60
2021/01/12 01:44:09;;;;;;;;;;;;;;;;;;5007551;28;20400;-60
2021/01/12 01:46:36;;;;;;;;;;;;;;;;;;5008906;28;19925;-60
2021/01/12 01:49:03;;;;;;;;;;;;;;;;;;5011702;28;19925;-61
2021/01/12 01:51:30;;;;;;;;;;;;;;;;;;5008883;28;20036;-61
2021/01/12 01:53:57;;;;;;;;;;;;;;;;;;5012238;28;20340;-60
2021/01/12 01:56:24;;;;;;;;;;;;;;;;;;5010848;28;19926;-60
2021/01/12 01:58:52;;;;;;;;;;;;;;;;;;5011248;28;19929;-60
2021/01/12 02:01:19;;;;;;;;;;;;;;;;;;5009161;28;19940;-60
2021/01/12 02:03:46;;;;;;;;;;;;;;;;;;5047681;22;19925;-68
2021/01/12 02:06:13;;;;;;;;;;;;;;;;;;5042332;28;19926;-67
2021/01/12 02:08:40;;;;;;;;;;;;;;;;;;5042427;28;19925;-67
2021/01/12 02:11:07;;;;;;;;;;;;;;;;;;5049033;28;21833;-67
2021/01/12 02:13:35;;;;;;;;;;;;;;;;;;5035968;28;19936;-68
2021/01/12 02:16:02;;;;;;;;;;;;;;;;;;5043935;28;19994;-67
2021/01/12 02:18:30;;;;;;;;;;;;;;;;;;5049043;28;19925;-67
2021/01/12 02:20:59;;;;;;;;;;;;;;;;;;5050384;28;20062;-66
2021/01/12 02:23:26;;;;;;;;;;;;;;;;;;5050230;28;19925;-66
2021/01/12 02:25:53;;;;;;;;;;;;;;;;;;5048986;28;19944;-66
2021/01/12 02:28:20;;;;;;;;;;;;;;;;;;5050121;28;19929;-66
2021/01/12 02:30:47;;;;;;;;;;;;;;;;;;5048969;28;19935;-66
2021/01/12 02:33:14;;;;;;;;;;;;;;;;;;5050257;28;20126;-66
2021/01/12 02:35:41;;;;;;;;;;;;;;;;;;5040869;28;19947;-66
2021/01/12 02:38:08;;;;;;;;;;;;;;;;;;5048621;28;20407;-66
2021/01/12 02:40:35;;;;;;;;;;;;;;;;;;5041695;28;20337;-66
2021/01/12 02:43:02;;;;;;;;;;;;;;;;;;5048310;28;19928;-66
2021/01/12 02:45:30;;;;;;;;;;;;;;;;;;5042734;28;20293;-67
2021/01/12 02:47:58;;;;;;;;;;;;;;;;;;5046259;28;19929;-66
2021/01/12 02:50:25;;;;;;;;;;;;;;;;;;5049480;28;20249;-66
2021/01/12 02:52:52;;;;;;;;;;;;;;;;;;5049388;28;19925;-66
2021/01/12 02:55:19;;;;;;;;;;;;;;;;;;5048994;28;19925;-66
2021/01/12 02:57:46;;;;;;;;;;;;;;;;;;5048693;28;19944;-67
2021/01/12 03:00:15;;;;;;;;;;;;;;;;;;5048677;28;19948;-66
2021/01/12 03:02:42;;;;;;;;;;;;;;;;;;5048989;28;20015;-66
2021/01/12 03:05:09;;;;;;;;;;;;;;;;;;5049571;28;19932;-67
2021/01/12 03:07:37;;;;;;;;;;;;;;;;;;5047027;28;20039;-67
2021/01/12 03:10:04;;;;;;;;;;;;;;;;;;5049766;28;20308;-67
2021/01/12 03:12:31;;;;;;;;;;;;;;;;;;5043092;28;20243;-67
2021/01/12 03:14:58;;;;;;;;;;;;;;;;;;5032036;28;19933;-67
2021/01/12 03:17:25;;;;;;;;;;;;;;;;;;5049062;28;19924;-67
2021/01/12 03:19:52;;;;;;;;;;;;;;;;;;5051732;28;20292;-67
2021/01/12 03:22:19;;;;;;;;;;;;;;;;;;5054134;28;19925;-68
2021/01/12 03:24:46;;;;;;;;;;;;;;;;;;5051886;28;19925;-68
2021/01/12 03:27:13;;;;;;;;;;;;;;;;;;5042388;28;19925;-67
2021/01/12 03:29:40;;;;;;;;;;;;;;;;;;5040882;28;19931;-67
2021/01/12 03:32:07;;;;;;;;;;;;;;;;;;5051340;28;19933;-68
2021/01/12 03:34:35;;;;;;;;;;;;;;;;;;5054384;28;19976;-66
2021/01/12 03:37:02;;;;;;;;;;;;;;;;;;5051796;28;19931;-67
2021/01/12 03:39:29;;;;;;;;;;;;;;;;;;5047786;28;19995;-67
2021/01/12 03:41:56;;;;;;;;;;;;;;;;;;5042788;28;19931;-67
2021/01/12 03:44:23;;;;;;;;;;;;;;;;;;5050967;28;19932;-67
2021/01/12 03:46:50;;;;;;;;;;;;;;;;;;5053102;28;19929;-67
2021/01/12 03:49:18;;;;;;;;;;;;;;;;;;5051514;28;19936;-67
2021/01/12 03:51:45;;;;;;;;;;;;;;;;;;5052373;28;19938;-67
2021/01/12 03:54:12;;;;;;;;;;;;;;;;;;5052816;28;20335;-66
2021/01/12 03:56:39;;;;;;;;;;;;;;;;;;5052729;28;20276;-67
2021/01/12 03:59:06;;;;;;;;;;;;;;;;;;5052129;28;20004;-67
2021/01/12 04:01:33;;;;;;;;;;;;;;;;;;5052367;28;19932;-67
2021/01/12 04:04:00;;;;;;;;;;;;;;;;;;5049789;28;19932;-66
2021/01/12 04:06:27;;;;;;;;;;;;;;;;;;5051285;28;19928;-66
2021/01/12 04:08:55;;;;;;;;;;;;;;;;;;5052980;28;19955;-67
2021/01/12 04:11:22;;;;;;;;;;;;;;;;;;5051565;28;20011;-67
2021/01/12 04:13:49;;;;;;;;;;;;;;;;;;5053326;28;19925;-67
2021/01/12 04:16:17;;;;;;;;;;;;;;;;;;5046481;28;19933;-67
2021/01/12 04:18:44;;;;;;;;;;;;;;;;;;5040754;28;20507;-67
2021/01/12 04:21:11;;;;;;;;;;;;;;;;;;5041208;28;20715;-67
2021/01/12 04:23:38;;;;;;;;;;;;;;;;;;5039628;28;19951;-67
2021/01/12 04:26:06;;;;;;;;;;;;;;;;;;5049788;28;19924;-67
2021/01/12 04:28:33;;;;;;;;;;;;;;;;;;5053145;28;19924;-68
2021/01/12 04:31:00;;;;;;;;;;;;;;;;;;5049894;28;20503;-68
2021/01/12 04:33:27;;;;;;;;;;;;;;;;;;5050202;28;20037;-68
2021/01/12 04:35:54;;;;;;;;;;;;;;;;;;5051773;28;20611;-68
2021/01/12 04:38:21;;;;;;;;;;;;;;;;;;5051597;28;20016;-68
2021/01/12 04:40:49;;;;;;;;;;;;;;;;;;5051364;28;19962;-68
2021/01/12 04:43:16;;;;;;;;;;;;;;;;;;5049956;28;20431;-68
2021/01/12 04:45:43;;;;;;;;;;;;;;;;;;5038819;28;20308;-68
2021/01/12 04:48:10;;;;;;;;;;;;;;;;;;5052073;28;19935;-68
2021/01/12 04:50:37;;;;;;;;;;;;;;;;;;5049590;28;19929;-68
2021/01/12 04:53:04;;;;;;;;;;;;;;;;;;5051654;28;20303;-68
2021/01/12 04:55:31;;;;;;;;;;;;;;;;;;5051467;28;19924;-68
2021/01/12 04:57:58;;;;;;;;;;;;;;;;;;5052086;28;19936;-68
2021/01/12 05:00:26;;;;;;;;;;;;;;;;;;5050701;28;19932;-68
2021/01/12 05:02:54;;;;;;;;;;;;;;;;;;5051329;28;20283;-68
2021/01/12 05:05:21;;;;;;;;;;;;;;;;;;5050646;28;19924;-68
2021/01/12 05:07:48;;;;;;;;;;;;;;;;;;5048811;28;20384;-68
2021/01/12 05:10:15;;;;;;;;;;;;;;;;;;5038952;28;19997;-68
2021/01/12 05:12:42;;;;;;;;;;;;;;;;;;5049785;28;19925;-68
2021/01/12 05:15:09;;;;;;;;;;;;;;;;;;5051924;28;19947;-68
2021/01/12 05:17:36;;;;;;;;;;;;;;;;;;5051536;28;19925;-68
2021/01/12 05:20:03;;;;;;;;;;;;;;;;;;5049635;28;20296;-65
2021/01/12 05:22:31;;;;;;;;;;;;;;;;;;5050011;28;19929;-67
2021/01/12 05:27:40;;;;;;;;;;;;;;;;;;5050678;28;20026;-67
2021/01/12 05:30:09;;;;;;;;;;;;;;;;;;5048590;28;20367;-67
2021/01/12 05:32:36;;;;;;;;;;;;;;;;;;5051928;28;19971;-67
2021/01/12 05:35:03;;;;;;;;;;;;;;;;;;5051064;28;20285;-67
2021/01/12 05:37:30;;;;;;;;;;;;;;;;;;5051778;28;20051;-67
2021/01/12 05:39:57;;;;;;;;;;;;;;;;;;5050158;28;19929;-68
2021/01/12 05:42:24;;;;;;;;;;;;;;;;;;5034945;28;19925;-67
2021/01/12 05:44:51;;;;;;;;;;;;;;;;;;5048369;28;19932;-67
2021/01/12 05:47:18;;;;;;;;;;;;;;;;;;5050579;28;19929;-65
2021/01/12 05:49:45;;;;;;;;;;;;;;;;;;5049807;28;19929;-65
2021/01/12 05:52:13;;;;;;;;;;;;;;;;;;5049851;28;20027;-65
2021/01/12 05:54:40;;;;;;;;;;;;;;;;;;5051113;28;19935;-65
2021/01/12 05:57:08;;;;;;;;;;;;;;;;;;5049720;28;19925;-66
2021/01/12 05:59:35;;;;;;;;;;;;;;;;;;5032589;28;20245;-65
2021/01/12 06:02:03;;;;;;;;;;;;;;;;;;5048153;28;20440;-68
2021/01/12 06:04:30;;;;;;;;;;;;;;;;;;5051080;28;19936;-65
2021/01/12 06:06:58;;;;;;;;;;;;;;;;;;5047371;28;20340;-66
2021/01/12 06:09:25;;;;;;;;;;;;;;;;;;5049901;28;20428;-65
2021/01/12 06:11:52;;;;;;;;;;;;;;;;;;5049929;28;19955;-66
2021/01/12 06:14:19;;;;;;;;;;;;;;;;;;5051068;28;19951;-66
2021/01/12 06:16:46;;;;;;;;;;;;;;;;;;5044641;28;20269;-67
2021/01/12 06:19:14;;;;;;;;;;;;;;;;;;5048680;28;20352;-67
2021/01/12 06:21:41;;;;;;;;;;;;;;;;;;5035553;28;19972;-66
2021/01/12 06:24:09;;;;;;;;;;;;;;;;;;5050078;28;20889;-66
2021/01/12 06:26:36;;;;;;;;;;;;;;;;;;5044973;28;20380;-66
2021/01/12 06:29:03;;;;;;;;;;;;;;;;;;5033144;28;19943;-66
2021/01/12 06:31:31;;;;;;;;;;;;;;;;;;5043080;28;20308;-66
2021/01/12 06:33:58;;;;;;;;;;;;;;;;;;5041370;28;19929;-67
2021/01/12 06:36:25;;;;;;;;;;;;;;;;;;5048040;28;20002;-67
2021/01/12 06:38:52;;;;;;;;;;;;;;;;;;5047830;28;19925;-66
2021/01/12 06:41:19;;;;;;;;;;;;;;;;;;5051130;28;20019;-67
2021/01/12 06:43:47;;;;;;;;;;;;;;;;;;5046940;28;19928;-67
2021/01/12 06:46:14;;;;;;;;;;;;;;;;;;5040908;28;19963;-66
2021/01/12 06:48:44;;;;;;;;;;;;;;;;;;5042892;28;19936;-65
2021/01/12 06:51:11;;;;;;;;;;;;;;;;;;5048176;28;19931;-65
2021/01/12 06:53:38;;;;;;;;;;;;;;;;;;5049343;28;20031;-66
2021/01/12 06:56:05;;;;;;;;;;;;;;;;;;5047141;28;19990;-66
2021/01/12 06:58:33;;;;;;;;;;;;;;;;;;5036255;28;19940;-66
2021/01/12 07:01:00;;;;;;;;;;;;;;;;;;5040678;28;19940;-65
2021/01/12 07:03:29;;;;;;;;;;;;;;;;;;5047801;28;19972;-66
2021/01/12 07:05:56;;;;;;;;;;;;;;;;;;5047869;28;19932;-66
2021/01/12 07:08:24;;;;;;;;;;;;;;;;;;5043362;28;20012;-66
2021/01/12 07:10:51;;;;;;;;;;;;;;;;;;5039868;28;20059;-66
2021/01/12 07:13:18;;;;;;;;;;;;;;;;;;5044616;28;20339;-66
2021/01/12 07:15:46;;;;;;;;;;;;;;;;;;5046723;28;19933;-66
2021/01/12 07:18:14;;;;;;;;;;;;;;;;;;5044487;28;19925;-67
2021/01/12 07:20:41;;;;;;;;;;;;;;;;;;5044615;28;19929;-66
2021/01/12 07:23:20;;;;;;;;;;;;;;;;;;5047946;28;19937;-65
2021/01/12 07:25:48;;;;;;;;;;;;;;;;;;5048287;28;20023;-65
2021/01/12 07:28:15;;;;;;;;;;;;;;;;;;5038038;28;20006;-65
2021/01/12 07:30:44;;;;;;;;;;;;;;;;;;5045433;28;19936;-65
2021/01/12 07:33:11;;;;;;;;;;;;;;;;;;5048005;28;19929;-65
2021/01/12 07:35:39;;;;;;;;;;;;;;;;;;5047827;28;19929;-65
2021/01/12 07:38:07;;;;;;;;;;;;;;;;;;5045287;28;19935;-65
2021/01/12 07:40:35;;;;;;;;;;;;;;;;;;5045543;28;19960;-65
2021/01/12 07:43:07;;;;;;;;;;;;;;;;;;5042745;28;19964;-66
2021/01/12 07:45:38;;;;;;;;;;;;;;;;;;5039636;28;19976;-66
2021/01/12 07:48:06;;;;;;;;;;;;;;;;;;5048799;28;19960;-66
2021/01/12 07:50:34;;;;;;;;;;;;;;;;;;5046249;28;19978;-65
2021/01/12 07:53:03;;;;;;;;;;;;;;;;;;5047326;28;20002;-66
2021/01/12 07:55:30;;;;;;;;;;;;;;;;;;5049242;28;19931;-66
2021/01/12 07:57:58;;;;;;;;;;;;;;;;;;5045556;28;19970;-66
2021/01/12 08:00:28;;;;;;;;;;;;;;;;;;5043013;28;19944;-67
2021/01/12 08:02:55;;;;;;;;;;;;;;;;;;5037681;28;19932;-66
2021/01/12 08:05:24;;;;;;;;;;;;;;;;;;5047459;28;20369;-65
2021/01/12 08:07:51;;;;;;;;;;;;;;;;;;5048887;28;20015;-66
2021/01/12 08:10:21;;;;;;;;;;;;;;;;;;5050561;28;20040;-66
2021/01/12 08:12:57;;;;;;;;;;;;;;;;;;5052837;28;19976;-67
2021/01/12 08:15:24;;;;;;;;;;;;;;;;;;5047294;28;19925;-65
2021/01/12 08:17:51;;;;;;;;;;;;;;;;;;5051013;28;19932;-66
2021/01/12 08:20:19;;;;;;;;;;;;;;;;;;5051639;28;19935;-65
2021/01/12 08:22:46;;;;;;;;;;;;;;;;;;5051923;28;19932;-65
2021/01/12 08:25:15;;;;;;;;;;;;;;;;;;5046460;28;19931;-66
2021/01/12 08:27:43;;;;;;;;;;;;;;;;;;5051073;28;19925;-67
2021/01/12 08:30:11;;;;;;;;;;;;;;;;;;5049061;28;19933;-67
2021/01/12 08:32:38;;;;;;;;;;;;;;;;;;5047768;28;19976;-65
2021/01/12 08:35:06;;;;;;;;;;;;;;;;;;5049056;28;19929;-66
2021/01/12 08:37:34;;;;;;;;;;;;;;;;;;5040807;28;19928;-67
2021/01/12 08:40:01;;;;;;;;;;;;;;;;;;5047678;28;19982;-65
2021/01/12 08:42:31;;;;;;;;;;;;;;;;;;5038226;28;19933;-66
2021/01/12 08:45:03;;;;;;;;;;;;;;;;;;5039321;28;19988;-66
2021/01/12 08:47:32;;;;;;;;;;;;;;;;;;5047039;28;20344;-66
2021/01/12 08:50:08;;;;;;;;;;;;;;;;;;5049319;28;19928;-66
2021/01/12 08:52:36;;;;;;;;;;;;;;;;;;5051723;28;20351;-66
2021/01/12 08:55:03;;;;;;;;;;;;;;;;;;5050699;28;20045;-65
2021/01/12 08:57:45;;;;;;;;;;;;;;;;;;5049706;28;19932;-65
2021/01/12 09:00:21;;;;;;;;;;;;;;;;;;5047745;28;19925;-65
2021/01/12 09:02:51;;;;;;;;;;;;;;;;;;5048853;28;20016;-65
2021/01/12 09:05:19;;;;;;;;;;;;;;;;;;5043080;28;19928;-65
2021/01/12 09:07:46;;;;;;;;;;;;;;;;;;5045919;28;19928;-65
2021/01/12 09:10:14;;;;;;;;;;;;;;;;;;5044906;28;19924;-65
2021/01/12 09:12:45;;;;;;;;;;;;;;;;;;5049464;28;19936;-66
2021/01/12 09:15:14;;;;;;;;;;;;;;;;;;5049842;28;20350;-66
2021/01/12 09:17:42;;;;;;;;;;;;;;;;;;5048401;28;20015;-64
2021/01/12 09:20:09;;;;;;;;;;;;;;;;;;5048780;28;19994;-64
2021/01/12 09:22:37;;;;;;;;;;;;;;;;;;5048483;28;20219;-64
2021/01/12 09:25:07;;;;;;;;;;;;;;;;;;5047663;28;20015;-64
2021/01/12 09:27:49;;;;;;;;;;;;;;;;;;5048926;28;19935;-62
2021/01/12 09:30:24;;;;;;;;;;;;;;;;;;5049834;28;20445;-63
2021/01/12 09:39:13;;;;;;;;;;;;;;;;;;5123867;27;19978;-64
2021/01/12 09:41:49;;;;;;;;;;;;;;;;;;5075632;28;19995;-63
2021/01/12 09:44:17;;;;;;;;;;;;;;;;;;5074454;28;19932;-64
2021/01/12 09:46:45;;;;;;;;;;;;;;;;;;5074718;28;20012;-64
2021/01/12 09:49:13;;;;;;;;;;;;;;;;;;5086197;28;19939;-64
2021/01/12 09:51:42;;;;;;;;;;;;;;;;;;5079157;28;19933;-64
2021/01/12 09:54:10;;;;;;;;;;;;;;;;;;5078333;28;20008;-63
2021/01/12 09:56:37;;;;;;;;;;;;;;;;;;5076274;28;19929;-66
2021/01/12 09:59:16;;;;;;;;;;;;;;;;;;5072240;28;20335;-64
2021/01/12 10:01:52;;;;;;;;;;;;;;;;;;5065857;28;19939;-65
2021/01/12 10:04:20;;;;;;;;;;;;;;;;;;5062853;28;20376;-64
2021/01/12 10:06:50;;;;;;;;;;;;;;;;;;5057411;28;20008;-65
2021/01/12 10:09:23;;;;;;;;;;;;;;;;;;5063508;28;19933;-63
2021/01/12 10:11:59;;;;;;;;;;;;;;;;;;5059423;28;20268;-64
2021/01/12 10:14:33;;;;;;;;;;;;;;;;;;5064639;28;20456;-65
2021/01/12 10:17:13;;;;;;;;;;;;;;;;;;5063964;28;19928;-64
2021/01/12 10:19:41;;;;;;;;;;;;;;;;;;5059201;28;19982;-65
2021/01/12 10:22:09;;;;;;;;;;;;;;;;;;5064900;28;20509;-64
2021/01/12 10:24:36;;;;;;;;;;;;;;;;;;5062142;28;19940;-64
2021/01/12 10:27:10;;;;;;;;;;;;;;;;;;5050679;28;19978;-65
2021/01/12 10:29:44;;;;;;;;;;;;;;;;;;5064030;28;20002;-64
2021/01/12 10:32:12;;;;;;;;;;;;;;;;;;5063582;28;19928;-64
2021/01/12 10:34:40;;;;;;;;;;;;;;;;;;5063056;28;19964;-64
2021/01/12 10:37:10;;;;;;;;;;;;;;;;;;5064725;28;19935;-64
2021/01/12 10:39:38;;;;;;;;;;;;;;;;;;5068320;28;19928;-64
2021/01/12 10:42:08;;;;;;;;;;;;;;;;;;5084877;28;19943;-64
2021/01/12 10:44:36;;;;;;;;;;;;;;;;;;5085534;28;19951;-63
2021/01/12 10:47:04;;;;;;;;;;;;;;;;;;5068066;28;20200;-64
2021/01/12 10:49:31;;;;;;;;;;;;;;;;;;5065839;28;19970;-64
2021/01/12 10:51:59;;;;;;;;;;;;;;;;;;5060668;28;19929;-63
2021/01/12 10:54:27;;;;;;;;;;;;;;;;;;5071007;28;20046;-64
2021/01/12 10:56:57;;;;;;;;;;;;;;;;;;5059983;28;19924;-64
2021/01/12 10:59:25;;;;;;;;;;;;;;;;;;5069173;28;19925;-64
2021/01/12 11:01:52;;;;;;;;;;;;;;;;;;5058384;28;19928;-65
2021/01/12 11:04:19;;;;;;;;;;;;;;;;;;5069843;28;20007;-64
2021/01/12 11:06:47;;;;;;;;;;;;;;;;;;5071800;28;20030;-64
2021/01/12 11:09:15;;;;;;;;;;;;;;;;;;5065534;28;20012;-64
2021/01/12 11:11:43;;;;;;;;;;;;;;;;;;5074220;28;19936;-64
2021/01/12 11:14:10;;;;;;;;;;;;;;;;;;5070743;28;20376;-64
2021/01/12 11:16:38;;;;;;;;;;;;;;;;;;5067434;28;20292;-65
2021/01/12 11:19:06;;;;;;;;;;;;;;;;;;5070231;28;20271;-63
2021/01/12 11:21:33;;;;;;;;;;;;;;;;;;5075892;28;19963;-64
2021/01/12 11:24:01;;;;;;;;;;;;;;;;;;5073921;28;19925;-64
2021/01/12 11:26:29;;;;;;;;;;;;;;;;;;5061518;28;19950;-64
2021/01/12 11:28:56;;;;;;;;;;;;;;;;;;5066567;28;20343;-63
2021/01/12 11:31:24;;;;;;;;;;;;;;;;;;5072486;28;19924;-64
2021/01/12 11:33:51;;;;;;;;;;;;;;;;;;5064495;28;20307;-65
2021/01/12 11:36:19;;;;;;;;;;;;;;;;;;5069112;28;19967;-65
2021/01/12 11:38:46;;;;;;;;;;;;;;;;;;5069311;28;20049;-64
2021/01/12 11:41:14;;;;;;;;;;;;;;;;;;5072116;28;20364;-64
2021/01/12 11:43:42;;;;;;;;;;;;;;;;;;5066400;28;19928;-64
2021/01/12 11:46:10;;;;;;;;;;;;;;;;;;5073753;28;20310;-64
2021/01/12 11:48:38;;;;;;;;;;;;;;;;;;5073085;28;19924;-59
2021/01/12 11:51:05;;;;;;;;;;;;;;;;;;5067630;28;20011;-59
2021/01/12 11:53:33;;;;;;;;;;;;;;;;;;5063777;28;20485;-58
2021/01/12 11:56:01;;;;;;;;;;;;;;;;;;5069728;28;20384;-59
2021/01/12 11:58:31;;;;;;;;;;;;;;;;;;5064301;28;20027;-60
2021/01/12 12:01:00;;;;;;;;;;;;;;;;;;5068850;28;19942;-60
2021/01/12 12:03:28;;;;;;;;;;;;;;;;;;5063717;28;19925;-59
2021/01/12 12:05:56;;;;;;;;;;;;;;;;;;5062143;28;19944;-61
2021/01/12 12:08:23;;;;;;;;;;;;;;;;;;5063849;28;20027;-58
2021/01/12 12:10:51;;;;;;;;;;;;;;;;;;5064412;28;19924;-59
2021/01/12 12:13:19;;;;;;;;;;;;;;;;;;5072103;28;19928;-60
2021/01/12 12:15:47;;;;;;;;;;;;;;;;;;5072339;28;19959;-59
2021/01/12 12:18:14;;;;;;;;;;;;;;;;;;5067919;28;19928;-59
2021/01/12 12:20:42;;;;;;;;;;;;;;;;;;5070034;28;20327;-60
2021/01/12 12:23:09;;;;;;;;;;;;;;;;;;5070814;28;19928;-58
2021/01/12 12:25:37;;;;;;;;;;;;;;;;;;5070808;28;19932;-59
2021/01/12 12:28:06;;;;;;;;;;;;;;;;;;5065108;28;19933;-59
2021/01/12 12:30:36;;;;;;;;;;;;;;;;;;5053211;28;19924;-58
2021/01/12 12:33:03;;;;;;;;;;;;;;;;;;5056027;28;20388;-59
2021/01/12 12:35:31;;;;;;;;;;;;;;;;;;5046502;28;19929;-60
2021/01/12 12:37:59;;;;;;;;;;;;;;;;;;5044861;28;19968;-59
2021/01/12 12:40:27;;;;;;;;;;;;;;;;;;5063399;28;19938;-59
2021/01/12 12:42:55;;;;;;;;;;;;;;;;;;5065633;28;19959;-59
2021/01/12 12:45:27;;;;;;;;;;;;;;;;;;5067061;28;20543;-59
2021/01/12 12:48:06;;;;;;;;;;;;;;;;;;5068622;28;20375;-58
2021/01/12 12:50:34;;;;;;;;;;;;;;;;;;5069720;28;19931;-59
2021/01/12 12:53:02;;;;;;;;;;;;;;;;;;5063142;28;19938;-60
2021/01/12 12:55:31;;;;;;;;;;;;;;;;;;5069176;28;19964;-59
2021/01/12 12:57:59;;;;;;;;;;;;;;;;;;5058958;28;19925;-59
2021/01/12 13:00:28;;;;;;;;;;;;;;;;;;5061306;28;19995;-59
2021/01/12 13:02:55;;;;;;;;;;;;;;;;;;5063577;28;19963;-59
2021/01/12 13:05:23;;;;;;;;;;;;;;;;;;5069378;28;20307;-59
2021/01/12 13:08:06;;;;;;;;;;;;;;;;;;5064307;28;19964;-60
2021/01/12 13:10:48;;;;;;;;;;;;;;;;;;5063325;28;20427;-59
2021/01/12 13:13:22;;;;;;;;;;;;;;;;;;5065968;28;19928;-59
2021/01/12 13:15:55;;;;;;;;;;;;;;;;;;5071020;28;19924;-60
2021/01/12 13:18:24;;;;;;;;;;;;;;;;;;5069214;28;19990;-60
2021/01/12 13:20:52;;;;;;;;;;;;;;;;;;5064317;28;19925;-58
2021/01/12 13:23:20;;;;;;;;;;;;;;;;;;5071585;28;19928;-59
2021/01/12 13:25:48;;;;;;;;;;;;;;;;;;5066622;28;19931;-60
2021/01/12 13:28:16;;;;;;;;;;;;;;;;;;5071765;28;19924;-59
2021/01/12 13:30:45;;;;;;;;;;;;;;;;;;5060431;28;19932;-59
2021/01/12 13:33:13;;;;;;;;;;;;;;;;;;5055231;28;19929;-59
2021/01/12 13:35:40;;;;;;;;;;;;;;;;;;5061641;28;19935;-60
2021/01/12 13:38:09;;;;;;;;;;;;;;;;;;5067620;28;19970;-60
2021/01/12 13:40:36;;;;;;;;;;;;;;;;;;5071430;28;19925;-60
2021/01/12 13:43:04;;;;;;;;;;;;;;;;;;5069968;28;19932;-59
2021/01/12 13:45:35;;;;;;;;;;;;;;;;;;5071940;28;19932;-60
2021/01/12 13:48:04;;;;;;;;;;;;;;;;;;5068396;28;19940;-60
2021/01/12 13:50:32;;;;;;;;;;;;;;;;;;5069176;28;20053;-60
2021/01/12 13:53:00;;;;;;;;;;;;;;;;;;5070106;28;19968;-60
2021/01/12 13:55:30;;;;;;;;;;;;;;;;;;5066236;28;19934;-60
2021/01/12 13:57:58;;;;;;;;;;;;;;;;;;5068498;28;20035;-58
2021/01/12 14:00:33;;;;;;;;;;;;;;;;;;5068961;28;19928;-59
2021/01/12 14:03:07;;;;;;;;;;;;;;;;;;5068740;28;20299;-59
2021/01/12 14:05:35;;;;;;;;;;;;;;;;;;5066978;28;20387;-59
2021/01/12 14:08:03;;;;;;;;;;;;;;;;;;5068947;28;20395;-59
2021/01/12 14:10:31;;;;;;;;;;;;;;;;;;5068157;28;20249;-59
2021/01/12 14:12:58;;;;;;;;;;;;;;;;;;5067529;28;19924;-60
2021/01/12 14:15:26;;;;;;;;;;;;;;;;;;5068089;28;19924;-59
2021/01/12 14:21:23;;;;;;;;;;;;;;;;;;5065711;28;20428;-59
2021/01/12 14:24:05;;;;;;;;;;;;;;;;;;5060718;28;19964;-59
2021/01/12 14:26:32;;;;;;;;;;;;;;;;;;5056160;28;19933;-59
2021/01/12 14:29:00;;;;;;;;;;;;;;;;;;5058007;28;19939;-58
2021/01/12 14:31:28;;;;;;;;;;;;;;;;;;5067211;28;19932;-59
2021/01/12 14:33:56;;;;;;;;;;;;;;;;;;5072174;28;19932;-60
2021/01/12 14:36:26;;;;;;;;;;;;;;;;;;5066918;28;19970;-60
2021/01/12 14:38:53;;;;;;;;;;;;;;;;;;5067139;28;20013;-59
2021/01/12 14:41:22;;;;;;;;;;;;;;;;;;5061709;28;19936;-60
2021/01/12 14:43:49;;;;;;;;;;;;;;;;;;5070086;28;19989;-60
2021/01/12 14:46:17;;;;;;;;;;;;;;;;;;5069423;28;20448;-59
2021/01/12 14:48:44;;;;;;;;;;;;;;;;;;5067565;28;19928;-59
2021/01/12 14:51:12;;;;;;;;;;;;;;;;;;5064355;28;20425;-60
2021/01/12 14:53:39;;;;;;;;;;;;;;;;;;5050558;28;19975;-59
2021/01/12 14:56:06;;;;;;;;;;;;;;;;;;5050998;28;19933;-60
2021/01/12 14:58:34;;;;;;;;;;;;;;;;;;5058911;28;19936;-60
2021/01/12 15:01:02;;;;;;;;;;;;;;;;;;5055514;28;21087;-59
2021/01/12 15:03:33;;;;;;;;;;;;;;;;;;5070108;28;20024;-58
2021/01/12 15:06:01;;;;;;;;;;;;;;;;;;5057407;28;19928;-59
2021/01/12 15:08:28;;;;;;;;;;;;;;;;;;5061177;28;20360;-60
2021/01/12 15:10:56;;;;;;;;;;;;;;;;;;5051050;28;20259;-59
2021/01/12 15:13:24;;;;;;;;;;;;;;;;;;5062265;28;19928;-60
2021/01/12 15:15:52;;;;;;;;;;;;;;;;;;5064011;28;20046;-59
2021/01/12 15:18:20;;;;;;;;;;;;;;;;;;5075272;28;19929;-60
2021/01/12 15:20:47;;;;;;;;;;;;;;;;;;5066502;28;19932;-59
2021/01/12 15:23:16;;;;;;;;;;;;;;;;;;5072512;28;19935;-58
2021/01/12 15:25:43;;;;;;;;;;;;;;;;;;5068768;28;20359;-59
2021/01/12 15:28:10;;;;;;;;;;;;;;;;;;5056797;28;19928;-59
2021/01/12 15:30:38;;;;;;;;;;;;;;;;;;5065061;28;20352;-59
2021/01/12 15:33:09;;;;;;;;;;;;;;;;;;5054625;28;19933;-60
2021/01/12 15:35:36;;;;;;;;;;;;;;;;;;5060898;28;19932;-60
2021/01/12 15:38:04;;;;;;;;;;;;;;;;;;5045199;28;20364;-59
2021/01/12 15:40:31;;;;;;;;;;;;;;;;;;5047907;28;19925;-60
2021/01/12 15:42:58;;;;;;;;;;;;;;;;;;5050197;28;20015;-59
2021/01/12 15:45:27;;;;;;;;;;;;;;;;;;5047222;28;19969;-59
2021/01/12 15:47:54;;;;;;;;;;;;;;;;;;5046030;28;19932;-59
2021/01/12 15:50:22;;;;;;;;;;;;;;;;;;5026589;28;19932;-58
2021/01/12 15:52:51;;;;;;;;;;;;;;;;;;5028659;28;19933;-60
2021/01/12 15:55:18;;;;;;;;;;;;;;;;;;5023744;28;19925;-58
2021/01/12 15:57:46;;;;;;;;;;;;;;;;;;5025547;28;19934;-59
2021/01/12 16:00:13;;;;;;;;;;;;;;;;;;5033699;28;20016;-58
2021/01/12 16:02:41;;;;;;;;;;;;;;;;;;5037179;28;19976;-61
2021/01/12 16:05:10;;;;;;;;;;;;;;;;;;5039373;28;19978;-60
2021/01/12 16:07:39;;;;;;;;;;;;;;;;;;5041780;28;19980;-59
2021/01/12 16:10:06;;;;;;;;;;;;;;;;;;5042942;28;20325;-59
2021/01/12 16:12:33;;;;;;;;;;;;;;;;;;5043675;28;19984;-60
2021/01/12 16:15:04;;;;;;;;;;;;;;;;;;5042414;28;20031;-60
2021/01/12 16:17:33;;;;;;;;;;;;;;;;;;5041652;28;20287;-59
2021/01/12 16:20:00;;;;;;;;;;;;;;;;;;5040569;28;19935;-60
2021/01/12 16:22:28;;;;;;;;;;;;;;;;;;5040271;28;19928;-60
2021/01/12 16:24:55;;;;;;;;;;;;;;;;;;5045437;28;20329;-60
2021/01/12 16:27:23;;;;;;;;;;;;;;;;;;5047704;28;19978;-60
2021/01/12 16:29:52;;;;;;;;;;;;;;;;;;5043606;28;19925;-60
2021/01/12 16:32:20;;;;;;;;;;;;;;;;;;5041660;28;19925;-60
2021/01/12 16:34:48;;;;;;;;;;;;;;;;;;5042340;28;19979;-59
2021/01/12 16:37:16;;;;;;;;;;;;;;;;;;5029113;28;19925;-60
2021/01/12 16:39:43;;;;;;;;;;;;;;;;;;5023455;28;19961;-59
2021/01/12 16:42:11;;;;;;;;;;;;;;;;;;5020816;28;19933;-58
2021/01/12 16:44:40;;;;;;;;;;;;;;;;;;5027111;28;19925;-59
2021/01/12 16:47:09;;;;;;;;;;;;;;;;;;5022541;28;19925;-59
2021/01/12 16:49:38;;;;;;;;;;;;;;;;;;5013925;28;19929;-59
2021/01/12 16:52:06;;;;;;;;;;;;;;;;;;5023603;28;20320;-59
2021/01/12 16:54:33;;;;;;;;;;;;;;;;;;5023530;28;19961;-59
2021/01/12 16:57:01;;;;;;;;;;;;;;;;;;5018580;28;21210;-60
2021/01/12 16:59:29;;;;;;;;;;;;;;;;;;5018054;28;20332;-60
2021/01/12 17:01:57;;;;;;;;;;;;;;;;;;5020990;28;19960;-60
2021/01/12 17:04:28;;;;;;;;;;;;;;;;;;5023916;28;19925;-60